Time;durP1;ratioP1;P1;durP2;ratioP2;P2;SDS_P1;SDS_P2;PMS_P1;PMS_P2;Temp;Humidity;BMP_temperature;BMP_pressure;BME280_temperature;BME280_humidity;BME280_pressure;Samples;Min_cycle;Max_cycle;Signal;HPM_P1;HPM_P2
2021/12/17 00:00:18;;;;;;;19.20;11.45;;;;;;;9.13;100.00;103796.97;10534610;28;20051;-65
2021/12/17 00:11:11;;;;;;;21.48;12.13;;;;;;;9.15;100.00;103793.50;10530154;28;20098;-65
2021/12/17 00:16:37;;;;;;;16.33;10.57;;;;;;;9.10;100.00;103799.59;10524196;27;20048;-65
2021/12/17 00:51:24;;;;;;;11.52;8.00;;;;;;;8.91;100.00;103830.16;10548363;28;20415;-65
2021/12/17 00:56:36;;;;;;;9.88;7.82;;;;;;;8.81;100.00;103844.13;10565648;28;20062;-65
2021/12/17 01:02:00;;;;;;;13.57;9.30;;;;;;;8.86;100.00;103847.56;10536641;28;20040;-65
2021/12/17 01:07:26;;;;;;;12.85;9.40;;;;;;;8.89;100.00;103842.31;10523602;28;20051;-65
2021/12/17 01:12:48;;;;;;;12.55;9.88;;;;;;;8.84;100.00;103828.50;10495550;28;20060;-65
2021/12/17 01:18:15;;;;;;;13.70;10.93;;;;;;;8.86;100.00;103824.16;10527278;28;20039;-65
2021/12/17 01:46:09;;;;;;;16.37;11.90;;;;;;;8.78;100.00;103838.97;10562204;28;20047;-65
2021/12/17 02:02:51;;;;;;;16.40;10.13;;;;;;;8.74;100.00;103852.84;10556258;28;20491;-66
2021/12/17 02:08:13;;;;;;;14.88;8.63;;;;;;;8.78;100.00;103844.16;10553975;28;20052;-65
2021/12/17 02:19:44;;;;;;;9.13;5.80;;;;;;;8.71;100.00;103852.03;10580280;27;20043;-66
2021/12/17 02:31:08;;;;;;;5.18;2.65;;;;;;;8.61;100.00;103837.41;10573800;28;20475;-65
2021/12/17 02:36:33;;;;;;;2.63;1.85;;;;;;;8.53;100.00;103825.34;10519597;28;20054;-65
2021/12/17 02:47:37;;;;;;;5.78;2.30;;;;;;;8.64;100.00;103819.16;10531210;28;20058;-66
2021/12/17 02:53:01;;;;;;;2.38;1.77;;;;;;;8.64;100.00;103809.63;10561306;28;20054;-65
2021/12/17 02:58:26;;;;;;;4.15;2.25;;;;;;;8.72;100.00;103828.63;10562052;28;20058;-66
2021/12/17 03:03:53;;;;;;;4.53;2.40;;;;;;;8.72;100.00;103832.94;10546638;28;20058;-66
2021/12/17 03:09:20;;;;;;;2.95;2.13;;;;;;;8.55;100.00;103828.78;10556714;28;20087;-66
2021/12/17 03:14:51;;;;;;;4.30;2.35;;;;;;;8.81;100.00;103804.25;10561176;28;20534;-66
2021/12/17 03:25:58;;;;;;;3.70;2.50;;;;;;;8.60;100.00;103815.72;10518736;28;20044;-65
2021/12/17 03:31:21;;;;;;;4.85;2.75;;;;;;;8.64;100.00;103819.16;10558833;28;20043;-66
2021/12/17 03:36:51;;;;;;;4.43;2.85;;;;;;;8.50;100.00;103804.56;10530089;28;20071;-65
2021/12/17 03:42:15;;;;;;;6.25;3.40;;;;;;;8.61;100.00;103807.03;10542309;28;20081;-65
2021/12/17 03:47:36;;;;;;;5.30;3.13;;;;;;;8.52;100.00;103813.22;10527362;28;20408;-66
2021/12/17 03:52:58;;;;;;;4.93;2.70;;;;;;;8.52;100.00;103808.00;10551510;28;20039;-66
2021/12/17 03:58:20;;;;;;;5.88;2.88;;;;;;;8.27;100.00;103811.69;10579393;28;20213;-66
2021/12/17 04:03:41;;;;;;;5.35;2.80;;;;;;;8.39;100.00;103806.38;10561015;28;20048;-66
2021/12/17 04:09:04;;;;;;;5.63;3.13;;;;;;;8.33;100.00;103802.09;10571810;28;20380;-66
2021/12/17 04:14:34;;;;;;;4.20;2.70;;;;;;;8.52;100.00;103802.81;10535505;28;20052;-65
2021/12/17 04:19:55;;;;;;;4.15;2.70;;;;;;;8.32;100.00;103810.78;10513250;28;20044;-66
2021/12/17 04:25:17;;;;;;;4.15;2.47;;;;;;;8.43;100.00;103802.91;10565955;28;20055;-65
2021/12/17 04:30:40;;;;;;;7.47;3.25;;;;;;;8.43;100.00;103805.50;10540836;28;20476;-66
2021/12/17 04:36:02;;;;;;;8.90;3.42;;;;;;;8.37;100.00;103811.56;10524219;28;20103;-65
2021/12/17 04:57:15;;;;;;;4.53;3.13;;;;;;;8.55;100.00;103797.59;10555981;28;20052;-65
2021/12/17 04:58:01;;;;;;;4.43;2.47;;;;;;;8.57;100.00;103796.69;10525616;28;20495;-66
2021/12/17 05:03:23;;;;;;;5.22;2.60;;;;;;;8.36;100.00;103807.28;10524451;28;20044;-66
2021/12/17 05:08:46;;;;;;;5.32;2.83;;;;;;;8.45;100.00;103806.31;10537414;28;20073;-66
2021/12/17 05:19:51;;;;;;;9.23;3.55;;;;;;;8.48;100.00;103806.28;10523957;28;20404;-67
2021/12/17 05:25:16;;;;;;;11.88;4.00;;;;;;;8.51;100.00;103801.97;10564727;28;20048;-65
2021/12/17 05:30:44;;;;;;;11.90;4.28;;;;;;;8.51;100.00;103811.47;10536982;28;20068;-65
2021/12/17 05:36:06;;;;;;;10.18;4.63;;;;;;;8.42;100.00;103817.63;10509631;28;20048;-66
2021/12/17 05:41:28;;;;;;;12.55;5.35;;;;;;;8.40;100.00;103816.75;10544042;28;20044;-65
2021/12/17 05:46:49;;;;;;;10.02;5.15;;;;;;;8.45;100.00;103821.91;10547312;28;20388;-66
2021/12/17 05:52:11;;;;;;;18.90;5.78;;;;;;;8.58;100.00;103802.75;10535809;28;20059;-66
2021/12/17 05:57:33;;;;;;;14.18;5.95;;;;;;;8.47;100.00;103820.16;10527863;28;20048;-65
2021/12/17 06:02:54;;;;;;;11.43;5.28;;;;;;;8.54;100.00;103827.06;10524543;28;20044;-65
2021/12/17 06:08:16;;;;;;;14.35;5.82;;;;;;;8.52;100.00;103827.06;10533407;28;20067;-65
2021/12/17 06:13:38;;;;;;;10.43;5.60;;;;;;;8.61;100.00;103830.44;10527914;28;20056;-65
2021/12/17 06:19:01;;;;;;;9.75;5.63;;;;;;;8.60;100.00;103822.66;10526774;28;20047;-65
2021/12/17 06:24:23;;;;;;;11.82;6.32;;;;;;;8.67;100.00;103825.19;10562535;28;20056;-65
2021/12/17 06:29:45;;;;;;;13.25;6.15;;;;;;;8.63;100.00;103825.25;10537599;28;20044;-66
2021/12/17 06:35:08;;;;;;;11.77;6.55;;;;;;;8.61;100.00;103837.41;10519777;28;20048;-66
2021/12/17 06:40:29;;;;;;;12.95;6.43;;;;;;;8.61;100.00;103840.00;10533404;28;20058;-66
2021/12/17 06:46:02;;;;;;;14.52;7.38;;;;;;;8.62;100.00;103845.16;10520370;28;20055;-66
2021/12/17 07:42:18;;;;;;;14.68;6.82;;;;;;;8.73;100.00;103848.53;10556142;28;20047;-64
2021/12/17 07:47:40;;;;;;;13.70;6.88;;;;;;;8.74;100.00;103852.00;10543656;28;20052;-64
2021/12/17 07:53:03;;;;;;;10.50;5.95;;;;;;;8.66;100.00;103865.06;10547337;28;20048;-64
2021/12/17 07:58:25;;;;;;;12.52;5.53;;;;;;;8.68;100.00;103858.13;10539551;28;20484;-66
2021/12/17 08:03:46;;;;;;;7.40;4.20;;;;;;;8.69;100.00;103859.84;10526004;28;20055;-66
2021/12/17 08:09:29;;;;;;;5.72;3.78;;;;;;;8.68;100.00;103862.44;10545683;28;20051;-65
2021/12/17 08:14:50;;;;;;;5.30;3.92;;;;;;;8.63;100.00;103854.69;10511214;28;20404;-66
2021/12/17 08:31:22;;;;;;;7.35;3.13;;;;;;;8.68;100.00;103863.34;10535497;28;20077;-66
2021/12/17 08:36:44;;;;;;;5.20;3.15;;;;;;;8.65;100.00;103868.56;10548118;27;20138;-66
2021/12/17 08:42:06;;;;;;;5.22;3.20;;;;;;;8.62;100.00;103873.78;10547951;27;20040;-66
2021/12/17 08:47:28;;;;;;;7.28;3.55;;;;;;;8.67;100.00;103877.22;10536617;27;20105;-66
2021/12/17 08:52:50;;;;;;;8.73;3.70;;;;;;;8.68;100.00;103876.34;10538572;28;20044;-66
2021/12/17 08:58:14;;;;;;;5.53;3.58;;;;;;;8.75;100.00;103879.75;10549903;28;20051;-66
2021/12/17 09:03:35;;;;;;;4.70;3.65;;;;;;;8.73;100.00;103890.13;10524390;28;20040;-66
2021/12/17 09:08:57;;;;;;;5.25;3.63;;;;;;;8.68;100.00;103898.84;10521919;28;20130;-67
2021/12/17 09:14:20;;;;;;;6.93;4.15;;;;;;;8.80;100.00;103893.59;10531980;27;20044;-66
2021/12/17 09:19:42;;;;;;;6.25;3.78;;;;;;;8.78;100.00;103890.13;10541072;28;20500;-66
2021/12/17 09:25:05;;;;;;;9.43;4.25;;;;;;;8.80;100.00;103889.22;10548534;28;20047;-66
2021/12/17 09:30:26;;;;;;;6.53;4.60;;;;;;;8.84;100.00;103895.25;10542656;28;20492;-65
2021/12/17 09:35:48;;;;;;;9.48;4.85;;;;;;;8.90;100.00;103890.88;10566380;28;20403;-66
2021/12/17 09:41:09;;;;;;;7.38;4.93;;;;;;;8.89;100.00;103901.28;10556124;28;20130;-65
2021/12/17 09:46:31;;;;;;;8.80;4.97;;;;;;;8.97;100.00;103908.16;10538839;28;20048;-66
2021/12/17 09:51:53;;;;;;;13.07;5.68;;;;;;;9.00;100.00;103908.16;10534641;28;20055;-65
2021/12/17 09:57:17;;;;;;;9.70;5.13;;;;;;;9.00;100.00;103907.25;10508960;28;20105;-65
2021/12/17 10:02:43;;;;;;;9.10;5.35;;;;;;;9.10;100.00;103904.56;10523052;28;20062;-66
2021/12/17 10:08:19;;;;;;;8.45;5.22;;;;;;;9.14;100.00;103911.47;10529863;28;20047;-66
2021/12/17 10:13:41;;;;;;;7.30;5.20;;;;;;;9.19;100.00;103917.47;10563065;28;20131;-65
2021/12/17 10:19:02;;;;;;;10.63;5.78;;;;;;;9.19;100.00;103904.47;10548560;28;20380;-65
2021/12/17 10:24:24;;;;;;;8.15;5.78;;;;;;;9.34;100.00;103893.91;10546776;28;20048;-66
2021/12/17 10:29:46;;;;;;;10.48;5.18;;;;;;;9.30;100.00;103889.63;10544225;28;20056;-65
2021/12/17 10:35:17;;;;;;;11.23;5.70;;;;;;;9.39;100.00;103891.28;10521180;28;20088;-65
2021/12/17 10:40:56;;;;;;;11.27;5.75;;;;;;;9.40;100.00;103892.97;10541334;28;20123;-65
2021/12/17 10:51:56;;;;;;;9.48;5.47;;;;;;;9.46;100.00;103904.19;10576497;28;20075;-65
2021/12/17 10:57:17;;;;;;;9.15;5.35;;;;;;;9.52;100.00;103898.91;10564911;28;20077;-65
2021/12/17 11:02:50;;;;;;;8.70;5.47;;;;;;;9.61;100.00;103898.78;10534604;28;20048;-66
2021/12/17 11:08:28;;;;;;;11.80;5.38;;;;;;;9.59;100.00;103892.78;10551058;28;20056;-66
2021/12/17 11:13:58;;;;;;;12.00;5.97;;;;;;;9.59;100.00;103897.97;10526954;28;20131;-66
2021/12/17 11:19:21;;;;;;;42.08;8.55;;;;;;;9.56;100.00;103898.00;10531700;27;20078;-65
2021/12/17 11:24:43;;;;;;;10.18;5.75;;;;;;;9.65;100.00;103895.28;10558326;28;20526;-65
2021/12/17 11:30:19;;;;;;;9.98;5.30;;;;;;;9.69;100.00;103896.97;10578243;28;20123;-65
2021/12/17 11:35:44;;;;;;;8.18;5.25;;;;;;;9.70;100.00;103893.50;10541128;28;20055;-66
2021/12/17 11:41:15;;;;;;;13.10;5.97;;;;;;;9.86;100.00;103900.25;10545005;28;20044;-66
2021/12/17 11:46:37;;;;;;;8.32;5.68;;;;;;;9.79;100.00;103895.97;10550712;28;20058;-66
2021/12/17 11:52:00;;;;;;;12.90;5.60;;;;;;;9.74;100.00;103905.63;10566515;28;20070;-66
2021/12/17 11:57:40;;;;;;;10.73;5.32;;;;;;;9.61;100.00;103888.38;10559702;28;20056;-65
2021/12/17 12:03:12;;;;;;;11.25;6.07;;;;;;;9.71;100.00;103895.22;10533378;28;20444;-66
2021/12/17 12:08:50;;;;;;;8.55;5.35;;;;;;;9.62;100.00;103900.53;10544768;28;20621;-66
2021/12/17 12:14:31;;;;;;;9.75;6.15;;;;;;;9.59;100.00;103897.97;10532680;28;20047;-65
2021/12/17 12:19:53;;;;;;;8.82;6.45;;;;;;;9.59;100.00;103905.78;10560347;27;20069;-65
2021/12/17 12:25:28;;;;;;;7.50;5.82;;;;;;;9.56;100.00;103901.47;10568749;28;20395;-65
2021/12/17 12:30:52;;;;;;;14.32;6.03;;;;;;;9.51;100.00;103891.13;10541025;28;20054;-66
2021/12/17 12:36:13;;;;;;;9.30;5.35;;;;;;;9.50;100.00;103895.47;10541241;28;20052;-65
2021/12/17 12:41:48;;;;;;;7.55;6.03;;;;;;;9.66;100.00;103876.19;10548472;28;20043;-66
2021/12/17 12:47:30;;;;;;;11.43;6.50;;;;;;;9.63;100.00;103865.78;10568188;28;20054;-65
2021/12/17 12:52:54;;;;;;;8.75;4.97;;;;;;;9.70;100.00;103868.31;10577348;28;20089;-65
2021/12/17 12:58:23;;;;;;;9.48;4.57;;;;;;;9.77;100.00;103874.28;10566236;28;20055;-66
2021/12/17 13:03:45;;;;;;;3.88;2.80;;;;;;;9.67;100.00;103876.19;10557290;28;20246;-66
2021/12/17 13:09:07;;;;;;;8.85;2.83;;;;;;;9.77;100.00;103879.50;10557448;28;20043;-66
2021/12/17 13:14:31;;;;;;;4.22;2.58;;;;;;;9.80;100.00;103875.13;10560113;28;20055;-65
2021/12/17 13:25:35;;;;;;;5.72;3.08;;;;;;;9.74;100.00;103875.19;10527196;28;20056;-64
2021/12/17 13:30:57;;;;;;;5.30;3.55;;;;;;;9.69;100.00;103860.50;10564011;27;20055;-64
2021/12/17 13:36:18;;;;;;;5.68;3.10;;;;;;;9.72;100.00;103870.91;10525490;28;20052;-64
2021/12/17 13:41:43;;;;;;;4.55;2.70;;;;;;;9.66;100.00;103865.75;10544713;28;20404;-65
2021/12/17 13:47:23;;;;;;;7.13;2.50;;;;;;;9.65;100.00;103861.44;10556516;28;20044;-64
2021/12/17 13:52:53;;;;;;;2.47;1.40;;;;;;;9.63;100.00;103851.03;10541212;28;20685;-65
2021/12/17 13:58:25;;;;;;;1.15;0.88;;;;;;;9.64;100.00;103862.31;10544775;28;20055;-65
2021/12/17 14:03:47;;;;;;;2.92;1.10;;;;;;;9.64;100.00;103857.97;10507418;28;20052;-65
2021/12/17 14:09:08;;;;;;;0.57;0.50;;;;;;;9.71;100.00;103869.19;10538701;28;20047;-65
2021/12/17 14:14:33;;;;;;;1.40;0.85;;;;;;;9.60;100.00;103865.84;10528729;28;20047;-65
2021/12/17 14:20:01;;;;;;;0.95;0.70;;;;;;;9.66;100.00;103876.19;10521140;28;20075;-65
2021/12/17 14:25:30;;;;;;;1.27;0.65;;;;;;;9.62;100.00;103880.56;10563782;28;20780;-65
2021/12/17 14:31:14;;;;;;;1.67;0.60;;;;;;;9.58;100.00;103883.22;10562459;28;20048;-64
2021/12/17 14:36:38;;;;;;;0.90;0.70;;;;;;;9.51;100.00;103881.56;10562834;28;20078;-65
2021/12/17 14:42:03;;;;;;;2.53;0.75;;;;;;;9.51;100.00;103872.91;10532712;28;20054;-65
2021/12/17 14:47:35;;;;;;;1.42;1.20;;;;;;;9.54;100.00;103869.34;10562559;28;20059;-64
2021/12/17 14:59:24;;;;;;;4.53;1.67;;;;;;;9.49;100.00;103874.66;10542097;28;20059;-65
2021/12/17 15:04:33;;;;;;;2.35;1.55;;;;;;;9.57;100.00;103861.53;10511994;28;20408;-65
2021/12/17 15:09:55;;;;;;;4.13;1.50;;;;;;;9.51;100.00;103862.50;10544416;28;20102;-65
2021/12/17 15:15:26;;;;;;;2.33;1.58;;;;;;;9.39;100.00;103871.28;10547704;28;20158;-65
2021/12/17 15:20:51;;;;;;;1.92;1.58;;;;;;;9.53;100.00;103869.41;10523715;28;20047;-66
2021/12/17 15:26:13;;;;;;;5.25;2.50;;;;;;;9.38;100.00;103863.50;10561712;28;20056;-65
2021/12/17 15:31:35;;;;;;;2.20;1.88;;;;;;;9.45;100.00;103866.03;10568125;28;20048;-65
2021/12/17 15:36:58;;;;;;;3.40;2.35;;;;;;;9.35;100.00;103869.59;10533409;28;20052;-65
2021/12/17 15:42:20;;;;;;;3.92;2.63;;;;;;;9.49;100.00;103874.66;10545740;28;20051;-65
2021/12/17 15:47:41;;;;;;;6.43;3.38;;;;;;;9.47;100.00;103873.81;10546892;28;20051;-65
2021/12/17 15:53:03;;;;;;;7.20;3.97;;;;;;;9.47;100.00;103871.22;10550289;28;20578;-65
2021/12/17 15:58:25;;;;;;;6.00;4.05;;;;;;;9.60;100.00;103865.84;10571872;28;20048;-66
2021/12/17 16:03:50;;;;;;;5.97;4.00;;;;;;;9.61;100.00;103872.75;10547853;28;20134;-66
2021/12/17 16:09:40;;;;;;;5.80;3.90;;;;;;;9.61;100.00;103867.53;10577457;28;20052;-66
2021/12/17 16:26:22;;;;;;;13.57;4.90;;;;;;;9.64;100.00;103857.09;10565768;28;20048;-65
2021/12/17 16:31:45;;;;;;;7.88;4.93;;;;;;;9.55;100.00;103867.63;10551675;28;20048;-65
2021/12/17 16:37:07;;;;;;;9.52;5.47;;;;;;;9.56;100.00;103857.19;10543856;27;20101;-66
2021/12/17 16:42:29;;;;;;;7.68;5.95;;;;;;;9.52;100.00;103872.88;10553162;27;20722;-66
2021/12/17 16:47:51;;;;;;;6.80;5.30;;;;;;;9.51;100.00;103875.50;10571442;27;20048;-66
2021/12/17 16:53:13;;;;;;;8.20;5.63;;;;;;;9.42;100.00;103871.25;10541645;28;20058;-66
2021/12/17 16:58:34;;;;;;;7.32;4.85;;;;;;;9.38;100.00;103873.94;10537089;28;20047;-66
2021/12/17 17:03:56;;;;;;;7.97;4.70;;;;;;;9.30;100.00;103876.63;10517516;28;20052;-66
2021/12/17 17:09:25;;;;;;;8.02;4.57;;;;;;;9.30;100.00;103879.22;10572378;27;20055;-66
2021/12/17 17:14:46;;;;;;;9.70;6.40;;;;;;;9.31;100.00;103883.53;10554206;27;20063;-66
2021/12/17 17:20:09;;;;;;;7.22;3.95;;;;;;;9.19;100.00;103882.81;10537054;28;20137;-66
2021/12/17 17:25:30;;;;;;;6.13;3.95;;;;;;;9.12;100.00;103881.13;10524615;28;20075;-66
2021/12/17 17:30:54;;;;;;;10.98;4.28;;;;;;;9.15;100.00;103886.31;10541447;27;20043;-66
2021/12/17 17:36:18;;;;;;;5.28;3.85;;;;;;;9.07;100.00;103878.56;10542880;28;20055;-66
2021/12/17 17:41:40;;;;;;;6.38;4.40;;;;;;;9.11;100.00;103880.28;10553868;27;20142;-66
2021/12/17 17:47:02;;;;;;;8.40;4.55;;;;;;;9.15;100.00;103881.09;10561829;28;20049;-66
2021/12/17 17:52:24;;;;;;;8.90;5.20;;;;;;;9.08;100.00;103885.50;10553373;27;20052;-67
2021/12/17 17:57:46;;;;;;;8.23;4.47;;;;;;;9.10;100.00;103880.28;10549133;28;20060;-67
2021/12/17 18:03:08;;;;;;;8.00;5.40;;;;;;;9.07;100.00;103873.38;10516884;28;20050;-67
2021/12/17 18:08:30;;;;;;;8.30;5.65;;;;;;;9.02;100.00;103879.50;10540045;27;20150;-66
2021/12/17 18:13:52;;;;;;;12.05;5.55;;;;;;;9.03;100.00;103882.06;10547773;28;20770;-66
2021/12/17 18:19:14;;;;;;;10.52;5.57;;;;;;;8.95;100.00;103883.91;10523535;27;20466;-66
2021/12/17 18:24:36;;;;;;;9.93;5.70;;;;;;;8.87;100.00;103885.72;10541940;27;20040;-66
2021/12/17 18:29:58;;;;;;;16.05;6.95;;;;;;;8.82;100.00;103891.81;10536424;27;20048;-67
2021/12/17 18:35:19;;;;;;;13.05;6.78;;;;;;;8.77;100.00;103884.03;10539128;27;20070;-67
2021/12/17 18:40:46;;;;;;;12.45;6.30;;;;;;;8.81;100.00;103885.75;10528935;28;20044;-66
2021/12/17 18:46:08;;;;;;;9.07;6.15;;;;;;;8.84;100.00;103892.66;10536989;28;20052;-66
2021/12/17 18:51:30;;;;;;;9.73;5.45;;;;;;;8.80;100.00;103884.03;10533136;28;20035;-66
2021/12/17 18:56:51;;;;;;;10.63;6.20;;;;;;;8.82;100.00;103887.47;10543515;28;20059;-66
2021/12/17 19:02:13;;;;;;;13.75;7.75;;;;;;;8.81;100.00;103885.75;10556727;28;20048;-66
2021/12/17 19:07:35;;;;;;;19.60;8.48;;;;;;;8.80;100.00;103873.63;10581853;28;20055;-66
2021/12/17 19:12:57;;;;;;;11.23;6.70;;;;;;;8.82;100.00;103881.41;10563943;28;20454;-66
2021/12/17 19:18:27;;;;;;;10.55;6.13;;;;;;;8.87;100.00;103884.84;10562029;27;20047;-66
2021/12/17 19:23:49;;;;;;;9.32;5.95;;;;;;;8.87;100.00;103870.09;10554064;27;20035;-66
2021/12/17 19:29:10;;;;;;;9.88;5.78;;;;;;;8.86;100.00;103855.38;10557597;27;20054;-66
2021/12/17 19:34:32;;;;;;;8.75;5.03;;;;;;;8.79;100.00;103838.09;10577057;27;20063;-66
2021/12/17 19:39:54;;;;;;;6.57;3.67;;;;;;;8.70;100.00;103847.69;10583167;27;20430;-66
2021/12/17 19:45:17;;;;;;;6.93;4.10;;;;;;;8.72;100.00;103870.25;10565414;27;20048;-65
2021/12/17 19:50:39;;;;;;;5.68;3.17;;;;;;;8.71;100.00;103878.91;10577876;27;20407;-65
2021/12/17 19:56:02;;;;;;;11.10;3.70;;;;;;;8.66;100.00;103891.09;10551769;28;20055;-66
2021/12/17 20:01:24;;;;;;;6.70;3.85;;;;;;;8.67;100.00;103897.13;10558569;28;20435;-66
2021/12/17 20:06:47;;;;;;;5.20;3.35;;;;;;;8.58;100.00;103885.97;10550007;28;20058;-66
2021/12/17 20:12:10;;;;;;;7.20;3.30;;;;;;;8.59;100.00;103878.13;10565144;27;20067;-65
2021/12/17 20:17:32;;;;;;;4.57;3.30;;;;;;;8.60;100.00;103885.91;10549080;27;20048;-66
2021/12/17 20:22:54;;;;;;;5.32;4.18;;;;;;;8.69;100.00;103884.97;10533312;27;20048;-66
2021/12/17 20:28:16;;;;;;;6.72;4.55;;;;;;;8.69;100.00;103891.06;10553261;28;20039;-66
2021/12/17 20:33:38;;;;;;;5.57;3.90;;;;;;;8.54;100.00;103889.44;10562068;28;20415;-66
2021/12/17 20:39:04;;;;;;;7.90;3.80;;;;;;;8.59;100.00;103892.88;10556264;28;20048;-66
2021/12/17 20:44:25;;;;;;;;;;;;;;;8.59;100.00;103896.34;10577402;27;20043;-66
2021/12/17 20:49:50;;;;;;;7.38;3.60;;;;;;;8.60;100.00;103885.91;10540274;28;19919;-65
2021/12/17 20:55:14;;;;;;;7.97;4.47;;;;;;;8.59;100.00;103882.50;10560145;27;20044;-65
2021/12/17 21:00:38;;;;;;;7.45;4.18;;;;;;;8.56;100.00;103872.09;10533242;28;20368;-66
2021/12/17 21:06:00;;;;;;;4.18;2.80;;;;;;;8.45;100.00;103874.78;10511188;28;20082;-66
2021/12/17 21:11:25;;;;;;;5.20;2.92;;;;;;;8.39;100.00;103879.16;10559816;28;20047;-66
2021/12/17 21:16:52;;;;;;;5.33;3.57;;;;;;;8.48;100.00;103884.28;10530700;28;20059;-66
2021/12/17 21:22:13;;;;;;;7.00;4.60;;;;;;;8.44;100.00;103887.81;10539468;28;20051;-66
2021/12/17 21:27:35;;;;;;;4.68;2.80;;;;;;;8.43;100.00;103888.69;10531283;28;20059;-67
2021/12/17 21:32:57;;;;;;;6.10;3.50;;;;;;;8.52;100.00;103896.41;10532882;28;20052;-66
2021/12/17 21:38:19;;;;;;;9.45;3.97;;;;;;;8.48;100.00;103905.06;10522616;28;20052;-66
2021/12/17 21:43:41;;;;;;;6.68;3.90;;;;;;;8.44;100.00;103914.66;10534131;28;20040;-67
2021/12/17 21:49:04;;;;;;;6.03;3.90;;;;;;;8.46;100.00;103891.22;10522118;28;20059;-66
2021/12/17 21:54:26;;;;;;;4.53;3.50;;;;;;;8.48;100.00;103879.97;10554711;28;20040;-66
2021/12/17 21:59:48;;;;;;;5.65;3.70;;;;;;;8.50;100.00;103875.63;10534402;28;20507;-66
2021/12/17 22:05:13;;;;;;;4.20;3.17;;;;;;;8.54;100.00;103863.44;10521155;28;20055;-66
2021/12/17 22:10:35;;;;;;;6.18;3.90;;;;;;;8.53;100.00;103866.94;10565585;28;20052;-66
2021/12/17 22:15:58;;;;;;;7.82;3.78;;;;;;;8.59;100.00;103854.75;10561409;28;20523;-66
2021/12/17 22:21:27;;;;;;;5.20;3.60;;;;;;;8.53;100.00;103866.94;10530115;28;20051;-66
2021/12/17 22:26:49;;;;;;;7.13;3.80;;;;;;;8.48;100.00;103863.50;10551232;28;20052;-66
2021/12/17 22:32:11;;;;;;;4.97;3.50;;;;;;;8.53;100.00;103877.31;10563314;28;20043;-66
2021/12/17 22:37:32;;;;;;;4.47;3.00;;;;;;;8.32;100.00;103872.25;10507217;28;20055;-66
2021/12/17 22:42:54;;;;;;;9.27;7.13;;;;;;;8.39;100.00;103868.78;10520239;28;20741;-66
2021/12/17 22:48:18;;;;;;;12.23;7.38;;;;;;;8.31;100.00;103870.53;10521022;28;20052;-66
2021/12/17 22:53:40;;;;;;;6.45;3.42;;;;;;;8.29;100.00;103862.75;10562598;28;20054;-66
2021/12/17 22:59:02;;;;;;;8.32;5.78;;;;;;;8.34;100.00;103871.41;10548124;28;20515;-65
2021/12/17 23:04:28;;;;;;;4.35;3.20;;;;;;;8.20;100.00;103873.22;10562103;28;20048;-66
2021/12/17 23:09:51;;;;;;;6.50;4.30;;;;;;;8.20;100.00;103861.97;10543123;28;20050;-66
2021/12/17 23:15:13;;;;;;;10.45;6.20;;;;;;;8.26;100.00;103869.72;10544838;28;20059;-66
2021/12/17 23:20:34;;;;;;;6.55;4.22;;;;;;;8.24;100.00;103871.47;10508195;28;20047;-66
2021/12/17 23:25:57;;;;;;;6.05;3.38;;;;;;;8.27;100.00;103868.84;10545662;28;20378;-66
2021/12/17 23:31:21;;;;;;;5.30;2.75;;;;;;;8.23;100.00;103861.94;10545321;28;20044;-66
2021/12/17 23:36:43;;;;;;;5.28;3.72;;;;;;;8.31;100.00;103870.53;10523056;28;20100;-66
2021/12/17 23:42:06;;;;;;;6.70;4.13;;;;;;;8.24;100.00;103868.88;10528095;28;20047;-66
2021/12/17 23:47:27;;;;;;;4.18;2.40;;;;;;;8.20;100.00;103870.63;10519922;28;20127;-66
2021/12/17 23:52:51;;;;;;;3.22;2.28;;;;;;;8.28;100.00;103855.00;10539209;28;20054;-66
2021/12/17 23:58:13;;;;;;;3.55;2.50;;;;;;;8.15;100.00;103861.97;10561344;28;20058;-66
